Time;durP1;ratioP1;P1;durP2;ratioP2;P2;SDS_P1;SDS_P2;PMS_P1;PMS_P2;Temp;Humidity;BMP_temperature;BMP_pressure;BME280_temperature;BME280_humidity;BME280_pressure;Samples;Min_cycle;Max_cycle;Signal;HPM_P1;HPM_P2
2022/10/22 04:02:15;;;;;;;1999.90;999.90;;;12.80;99.90;;;;;;5184123;22;20073;-78
2022/10/22 04:04:41;;;;;;;1999.90;999.90;;;12.80;99.90;;;;;;5022235;28;20054;-78
2022/10/22 04:07:07;;;;;;;1999.90;999.90;;;12.80;99.90;;;;;;5020862;28;20038;-78
2022/10/22 04:09:33;;;;;;;1999.90;999.90;;;12.80;99.90;;;;;;5022589;28;20039;-78
2022/10/22 04:11:59;;;;;;;1999.90;999.90;;;12.80;99.90;;;;;;5022130;28;20043;-78
2022/10/22 04:14:25;;;;;;;1999.90;999.90;;;12.80;99.90;;;;;;5072731;22;20049;-76
2022/10/22 04:16:51;;;;;;;1999.90;999.90;;;12.80;99.90;;;;;;5074501;28;20044;-76
2022/10/22 04:19:17;;;;;;;1999.90;999.90;;;12.90;99.90;;;;;;5072804;28;20032;-75
2022/10/22 04:21:43;;;;;;;1999.90;999.90;;;12.90;99.90;;;;;;5074960;28;20029;-75
2022/10/22 04:24:09;;;;;;;1999.90;999.90;;;13.00;99.90;;;;;;5074890;28;20052;-76
2022/10/22 04:26:35;;;;;;;1999.90;999.90;;;13.00;99.90;;;;;;5074671;28;20082;-76
2022/10/22 04:29:00;;;;;;;1999.90;999.90;;;12.90;99.90;;;;;;5075027;28;20033;-76
2022/10/22 04:31:26;;;;;;;1999.90;999.90;;;12.90;99.90;;;;;;5074915;28;20056;-76
2022/10/22 04:33:53;;;;;;;1999.90;999.90;;;12.80;99.90;;;;;;5074781;28;20055;-76
2022/10/22 04:36:19;;;;;;;1999.90;999.90;;;12.70;99.90;;;;;;5074163;28;20044;-76
2022/10/22 04:38:46;;;;;;;1999.90;999.90;;;12.60;99.90;;;;;;5073415;28;20039;-76
2022/10/22 04:41:17;;;;;;;1999.90;999.90;;;12.50;99.90;;;;;;5074983;28;20028;-76
2022/10/22 04:43:43;;;;;;;1999.90;999.90;;;12.50;99.90;;;;;;5072944;28;20576;-76
2022/10/22 04:46:10;;;;;;;1999.90;999.90;;;12.30;99.90;;;;;;5073214;28;20121;-76
2022/10/22 04:48:38;;;;;;;1999.90;999.90;;;12.20;99.90;;;;;;5073311;28;20470;-76
2022/10/22 04:51:05;;;;;;;1999.90;999.90;;;12.20;99.90;;;;;;5073114;28;20052;-76
2022/10/22 04:53:31;;;;;;;1999.90;999.90;;;12.10;99.90;;;;;;5074470;28;20117;-76
2022/10/22 04:56:08;;;;;;;1999.90;999.90;;;12.00;99.90;;;;;;5072879;28;20037;-75
2022/10/22 04:58:33;;;;;;;1999.90;999.90;;;12.00;99.90;;;;;;5089882;28;20033;-76
2022/10/22 05:00:59;;;;;;;1999.90;999.90;;;11.90;99.90;;;;;;5074822;28;20029;-76
2022/10/22 05:03:25;;;;;;;1999.90;999.90;;;11.80;99.90;;;;;;5074076;28;20501;-76
2022/10/22 05:05:51;;;;;;;1999.90;999.90;;;11.80;99.90;;;;;;5074040;28;20033;-76
2022/10/22 05:08:16;;;;;;;1999.90;999.90;;;11.70;99.90;;;;;;5072912;28;20043;-77
2022/10/22 05:10:42;;;;;;;1999.90;999.90;;;11.70;99.90;;;;;;5074411;28;20043;-76
2022/10/22 05:13:07;;;;;;;1999.90;999.90;;;11.60;99.90;;;;;;5074129;28;20032;-76
2022/10/22 05:15:33;;;;;;;1999.90;999.90;;;11.60;99.90;;;;;;5073864;28;20037;-76
2022/10/22 05:17:59;;;;;;;1999.90;999.90;;;11.60;99.90;;;;;;5073751;28;20037;-76
2022/10/22 05:20:24;;;;;;;1999.90;999.90;;;11.50;99.90;;;;;;5074020;28;20041;-76
2022/10/22 05:22:50;;;;;;;1999.90;999.90;;;11.50;99.90;;;;;;5072931;28;20032;-76
2022/10/22 05:25:15;;;;;;;1999.90;999.90;;;11.50;99.90;;;;;;5073883;28;20033;-76
2022/10/22 05:27:41;;;;;;;1999.90;999.90;;;11.40;99.90;;;;;;5074195;28;20041;-76
2022/10/22 05:30:07;;;;;;;1999.90;999.90;;;11.40;99.90;;;;;;5075457;28;20151;-76
2022/10/22 05:32:34;;;;;;;1999.90;999.90;;;11.30;99.90;;;;;;5076064;28;20060;-76
2022/10/22 05:34:59;;;;;;;1999.90;999.90;;;11.20;99.90;;;;;;5077065;28;20570;-76
2022/10/22 05:37:25;;;;;;;1999.90;999.90;;;11.10;99.90;;;;;;5076137;28;20179;-76
2022/10/22 05:39:50;;;;;;;1999.90;999.90;;;11.10;99.90;;;;;;5076115;28;20112;-76
2022/10/22 05:42:16;;;;;;;1999.90;999.90;;;11.00;99.90;;;;;;5077242;28;20044;-76
2022/10/22 05:44:41;;;;;;;1999.90;999.90;;;10.90;99.90;;;;;;5075597;28;20044;-76
2022/10/22 05:47:08;;;;;;;1999.90;999.90;;;11.00;99.90;;;;;;5077498;28;20402;-76
2022/10/22 05:49:34;;;;;;;1999.90;999.90;;;11.00;99.90;;;;;;5075804;28;20024;-76
2022/10/22 05:52:00;;;;;;;1999.90;999.90;;;10.90;99.90;;;;;;5075863;28;20041;-76
2022/10/22 05:54:25;;;;;;;1999.90;999.90;;;10.90;99.90;;;;;;5075878;28;20029;-76
2022/10/22 05:56:51;;;;;;;1999.90;999.90;;;10.90;99.90;;;;;;5092598;28;20055;-76
2022/10/22 05:59:16;;;;;;;1999.90;999.90;;;10.90;99.90;;;;;;5075987;28;20392;-76
2022/10/22 06:01:42;;;;;;;1999.90;999.90;;;11.00;99.90;;;;;;5075561;28;20041;-76
2022/10/22 06:04:11;;;;;;;1999.90;999.90;;;10.90;99.90;;;;;;5075549;28;20044;-76
2022/10/22 06:06:42;;;;;;;1999.90;999.90;;;11.00;99.90;;;;;;5076776;28;20502;-76
2022/10/22 06:09:22;;;;;;;1999.90;999.90;;;11.00;99.90;;;;;;5077328;28;20048;-76
2022/10/22 06:11:49;;;;;;;1999.90;999.90;;;11.10;99.90;;;;;;5077221;28;20136;-76
2022/10/22 06:14:16;;;;;;;1999.90;999.90;;;11.10;99.90;;;;;;5074884;28;20132;-76
2022/10/22 06:16:42;;;;;;;1999.90;999.90;;;11.20;99.90;;;;;;5076908;28;20029;-76
2022/10/22 06:19:10;;;;;;;1999.90;999.90;;;11.20;99.90;;;;;;5092424;28;20033;-76
2022/10/22 06:21:35;;;;;;;1999.90;999.90;;;11.30;99.90;;;;;;5077077;28;20061;-76
2022/10/22 06:24:01;;;;;;;1999.90;999.90;;;11.40;99.90;;;;;;5075257;28;20120;-77
2022/10/22 06:26:27;;;;;;;1999.90;999.90;;;11.50;99.90;;;;;;5076981;28;20144;-76
2022/10/22 06:28:54;;;;;;;1999.90;999.90;;;11.60;99.90;;;;;;5076655;28;20091;-76
2022/10/22 06:31:20;;;;;;;1999.90;999.90;;;11.70;99.90;;;;;;5075706;28;20037;-75
2022/10/22 06:33:46;;;;;;;1999.90;999.90;;;11.70;99.90;;;;;;5076663;28;20402;-76
2022/10/22 06:36:17;;;;;;;1999.90;999.90;;;11.80;99.90;;;;;;5075255;28;20091;-76
2022/10/22 06:38:43;;;;;;;1999.90;999.90;;;11.90;99.90;;;;;;5076810;28;20041;-76
2022/10/22 06:41:12;;;;;;;1999.90;999.90;;;12.00;99.90;;;;;;5076201;28;20399;-76
2022/10/22 06:43:38;;;;;;;1999.90;999.90;;;12.00;99.90;;;;;;5076251;28;20033;-76
2022/10/22 06:46:06;;;;;;;1999.90;999.90;;;12.10;99.90;;;;;;5075761;28;20460;-78
2022/10/22 06:48:32;;;;;;;1999.90;999.90;;;12.20;99.90;;;;;;5075933;28;20726;-78
2022/10/22 06:51:06;;;;;;;1999.90;999.90;;;12.20;99.90;;;;;;5076309;28;20132;-81
2022/10/22 06:53:32;;;;;;;1999.90;999.90;;;12.20;99.90;;;;;;5077585;28;20033;-79
2022/10/22 06:55:58;;;;;;;1999.90;999.90;;;12.30;99.90;;;;;;5076336;28;20446;-82
2022/10/22 06:58:24;;;;;;;1999.90;999.90;;;12.30;99.90;;;;;;5080360;28;20044;-81
2022/10/22 07:00:58;;;;;;;1999.90;999.90;;;12.30;99.90;;;;;;5078321;28;20128;-80
2022/10/22 07:03:24;;;;;;;1999.90;999.90;;;12.50;99.90;;;;;;5076170;28;20041;-83
2022/10/22 07:05:51;;;;;;;1999.90;999.90;;;12.50;99.90;;;;;;5078206;28;20033;-80
2022/10/22 07:08:16;;;;;;;1999.90;999.90;;;12.60;99.90;;;;;;5076825;28;20041;-80
2022/10/22 07:10:42;;;;;;;1999.90;999.90;;;12.70;99.90;;;;;;5077536;28;20449;-80
2022/10/22 07:13:08;;;;;;;1999.90;999.90;;;12.70;99.90;;;;;;5076641;28;20186;-79
2022/10/22 07:15:33;;;;;;;1999.90;999.90;;;12.80;99.90;;;;;;5074057;28;20061;-79
2022/10/22 07:17:59;;;;;;;1999.90;999.90;;;12.70;99.90;;;;;;5075627;28;20510;-77
2022/10/22 07:20:24;;;;;;;1999.90;999.90;;;12.90;99.90;;;;;;5078258;28;20044;-79
2022/10/22 07:22:50;;;;;;;1999.90;999.90;;;12.90;99.90;;;;;;5077511;28;20048;-82
2022/10/22 07:25:15;;;;;;;1999.90;999.90;;;12.90;99.90;;;;;;5077294;28;20116;-79
2022/10/22 07:27:41;;;;;;;1999.90;999.90;;;12.90;99.90;;;;;;5077927;28;20055;-80
2022/10/22 07:30:07;;;;;;;1999.90;999.90;;;13.00;99.90;;;;;;5075518;28;20032;-78
2022/10/22 07:32:33;;;;;;;1999.90;999.90;;;13.00;99.90;;;;;;5075419;28;20506;-79
2022/10/22 07:34:58;;;;;;;1999.90;999.90;;;12.90;99.90;;;;;;5077355;28;20037;-82
2022/10/22 07:37:24;;;;;;;1999.90;999.90;;;12.80;99.90;;;;;;5075732;28;20053;-82
2022/10/22 07:39:49;;;;;;;1999.90;999.90;;;12.90;99.90;;;;;;5074585;28;20072;-79
2022/10/22 07:42:15;;;;;;;1999.90;999.90;;;12.90;99.90;;;;;;5092166;28;20068;-80
2022/10/22 07:44:40;;;;;;;1999.90;999.90;;;12.90;99.90;;;;;;5075795;28;20029;-82
2022/10/22 07:47:06;;;;;;;1999.90;999.90;;;12.90;99.90;;;;;;5077278;28;20068;-79
2022/10/22 07:49:32;;;;;;;1999.90;999.90;;;12.90;99.90;;;;;;5077428;28;20033;-77
2022/10/22 07:51:57;;;;;;;1999.90;999.90;;;12.80;99.90;;;;;;5077344;28;20041;-81
2022/10/22 07:54:23;;;;;;;1999.90;999.90;;;12.80;99.90;;;;;;5073821;28;20036;-84
2022/10/22 07:56:49;;;;;;;1999.90;999.90;;;12.80;99.90;;;;;;5076443;28;20514;-81
2022/10/22 07:59:14;;;;;;;1999.90;999.90;;;13.00;99.90;;;;;;5093672;28;20033;-82
2022/10/22 08:01:40;;;;;;;1999.90;999.90;;;13.10;99.90;;;;;;5075569;28;20402;-82
2022/10/22 08:04:08;;;;;;;1999.90;999.90;;;13.20;99.90;;;;;;5074786;28;20079;-82
2022/10/22 08:06:34;;;;;;;1999.90;999.90;;;13.40;99.90;;;;;;5091961;28;20040;-82
2022/10/22 08:09:00;;;;;;;1999.90;999.90;;;13.40;99.90;;;;;;5074736;28;20033;-83
2022/10/22 08:11:26;;;;;;;1999.90;999.90;;;13.50;99.90;;;;;;5075880;28;20501;-83
2022/10/22 08:13:52;;;;;;;1999.90;999.90;;;13.60;99.90;;;;;;5073327;28;20041;-84
2022/10/22 08:16:18;;;;;;;1999.90;999.90;;;13.70;99.90;;;;;;5073825;28;20536;-83
2022/10/22 08:18:43;;;;;;;1999.90;999.90;;;13.90;99.90;;;;;;5072183;28;20120;-85
2022/10/22 08:21:11;;;;;;;1999.90;999.90;;;13.80;99.90;;;;;;5072080;28;20114;-83
2022/10/22 08:23:36;;;;;;;1999.90;999.90;;;13.80;99.90;;;;;;5075779;28;20398;-83
2022/10/22 08:26:02;;;;;;;1999.90;999.90;;;13.90;99.90;;;;;;5077757;28;20037;-81
2022/10/22 08:28:28;;;;;;;1999.90;999.90;;;13.70;99.90;;;;;;5075662;28;20063;-81
2022/10/22 08:30:54;;;;;;;1999.90;999.90;;;13.60;99.90;;;;;;5076968;28;20067;-82
2022/10/22 08:33:20;;;;;;;1999.90;999.90;;;13.70;99.90;;;;;;5076147;28;20109;-82
2022/10/22 08:35:50;;;;;;;1999.90;999.90;;;13.80;99.90;;;;;;5075826;28;20102;-82
2022/10/22 08:38:17;;;;;;;1999.90;999.90;;;13.80;99.90;;;;;;5076717;28;20523;-82
2022/10/22 08:40:45;;;;;;;1999.90;999.90;;;13.80;99.90;;;;;;5080449;28;20498;-83
2022/10/22 08:43:43;;;;;;;1999.90;999.90;;;13.90;99.90;;;;;;5078950;28;20037;-84
2022/10/22 08:46:28;;;;;;;1999.90;999.90;;;14.00;99.90;;;;;;5081976;28;20063;-82
2022/10/22 08:48:56;;;;;;;1999.90;999.90;;;14.10;99.90;;;;;;5081253;28;20855;-83
2022/10/22 08:51:29;;;;;;;1999.90;999.90;;;14.20;99.90;;;;;;5083011;28;20077;-82
2022/10/22 08:54:23;;;;;;;1999.90;999.90;;;14.20;99.90;;;;;;5083105;28;20552;-82
2022/10/22 08:57:11;;;;;;;1999.90;999.90;;;14.30;99.90;;;;;;5084842;28;20033;-81
2022/10/22 09:00:04;;;;;;;1999.90;999.90;;;14.40;99.90;;;;;;5092459;28;20044;-82
2022/10/22 09:02:38;;;;;;;1999.90;999.90;;;14.60;99.90;;;;;;5093992;28;20128;-81
2022/10/22 09:05:16;;;;;;;1999.90;999.90;;;14.60;99.90;;;;;;5077963;28;20033;-82
2022/10/22 09:07:47;;;;;;;1999.90;999.90;;;14.80;99.90;;;;;;5078663;28;20067;-82
2022/10/22 09:10:13;;;;;;;1999.90;999.90;;;15.00;99.90;;;;;;5082400;28;20040;-82
2022/10/22 09:12:39;;;;;;;1999.90;999.90;;;15.10;99.90;;;;;;5081212;28;20037;-82
2022/10/22 09:15:05;;;;;;;1999.90;999.90;;;15.10;99.90;;;;;;5081023;28;20403;-82
2022/10/22 09:17:44;;;;;;;1999.90;999.90;;;15.20;99.90;;;;;;5081995;28;20040;-82
2022/10/22 09:20:24;;;;;;;1999.90;999.90;;;15.30;99.90;;;;;;5083695;28;20035;-82
2022/10/22 09:22:59;;;;;;;1999.90;999.90;;;15.30;99.90;;;;;;5081633;28;20041;-82
2022/10/22 09:25:27;;;;;;;1999.90;999.90;;;15.40;99.90;;;;;;5082443;28;20033;-82
2022/10/22 09:27:57;;;;;;;1999.90;999.90;;;15.50;99.90;;;;;;5080197;28;20045;-82
2022/10/22 09:30:28;;;;;;;1999.90;999.90;;;15.40;99.90;;;;;;5081723;28;20021;-84
2022/10/22 09:33:18;;;;;;;1999.90;999.90;;;15.50;99.90;;;;;;5080946;28;20041;-83
2022/10/22 09:35:51;;;;;;;1999.90;999.90;;;15.60;99.90;;;;;;5069984;28;20530;-82
2022/10/22 09:38:20;;;;;;;1999.90;999.90;;;15.50;99.90;;;;;;5082601;28;20044;-83
2022/10/22 09:40:48;;;;;;;1999.90;999.90;;;15.60;99.90;;;;;;5078098;28;20474;-82
2022/10/22 09:43:15;;;;;;;1999.90;999.90;;;15.50;99.90;;;;;;5075154;28;20041;-82
2022/10/22 09:45:41;;;;;;;1999.90;999.90;;;15.50;99.90;;;;;;5075175;28;20778;-82
2022/10/22 09:48:13;;;;;;;1999.90;999.90;;;15.60;99.90;;;;;;5075134;28;20047;-82
2022/10/22 09:50:46;;;;;;;1999.90;999.90;;;15.60;99.90;;;;;;5075601;28;20037;-82
2022/10/22 09:53:24;;;;;;;1999.90;999.90;;;15.70;99.90;;;;;;5075167;28;20090;-82
2022/10/22 09:55:56;;;;;;;1999.90;999.90;;;15.80;99.90;;;;;;5076063;28;20029;-83
2022/10/22 09:58:22;;;;;;;1999.90;999.90;;;15.90;99.90;;;;;;5074987;28;20125;-83
2022/10/22 10:01:00;;;;;;;1999.90;999.90;;;15.90;99.90;;;;;;5074746;28;20116;-83
2022/10/22 10:03:29;;;;;;;1999.90;999.90;;;15.90;99.90;;;;;;5075647;28;20048;-82
2022/10/22 10:05:58;;;;;;;1999.90;999.90;;;16.00;99.90;;;;;;5074290;28;20033;-82
2022/10/22 10:08:24;;;;;;;1999.90;999.90;;;16.10;99.90;;;;;;5074359;28;20128;-82
2022/10/22 10:11:02;;;;;;;1999.90;999.90;;;16.30;99.90;;;;;;5075029;28;20091;-83
2022/10/22 10:16:02;;;;;;;1999.90;999.90;;;16.50;99.90;;;;;;5059463;22;40996;-82
2022/10/22 10:19:06;;;;;;;1999.90;999.90;;;16.50;99.90;;;;;;5045688;28;20042;-83
2022/10/22 10:22:03;;;;;;;1999.90;999.90;;;16.50;99.90;;;;;;5032632;28;20045;-82
2022/10/22 10:24:47;;;;;;;1999.90;999.90;;;16.60;99.90;;;;;;5044677;28;20026;-82
2022/10/22 10:27:40;;;;;;;1999.90;999.90;;;16.70;99.90;;;;;;5045182;28;20037;-83
2022/10/22 10:30:17;;;;;;;1999.90;999.90;;;16.80;99.90;;;;;;5045229;28;20117;-82
2022/10/22 10:33:01;;;;;;;1999.90;999.90;;;16.80;99.90;;;;;;5046821;28;20523;-83
2022/10/22 10:35:34;;;;;;;1999.90;999.90;;;16.90;99.90;;;;;;5044448;28;20053;-82
2022/10/22 10:38:18;;;;;;;1999.90;999.90;;;16.80;99.90;;;;;;5046055;28;20038;-83
2022/10/22 10:40:49;;;;;;;1999.90;999.90;;;16.80;99.90;;;;;;5045409;28;20081;-83
2022/10/22 10:43:36;;;;;;;1999.90;999.90;;;17.00;99.90;;;;;;5048882;28;20053;-83
2022/10/22 10:46:14;;;;;;;1999.90;999.90;;;17.00;99.90;;;;;;5048529;28;20092;-83
2022/10/22 10:49:04;;;;;;;1999.90;999.90;;;17.00;99.90;;;;;;5050168;28;20045;-83
2022/10/22 10:52:03;;;;;;;1999.90;999.90;;;17.10;99.90;;;;;;5048901;28;20061;-83
2022/10/22 10:54:44;;;;;;;1999.90;999.90;;;17.10;99.90;;;;;;5049689;28;20515;-83
2022/10/22 10:57:33;;;;;;;1999.90;999.90;;;17.10;99.90;;;;;;5050208;28;20097;-83
2022/10/22 11:00:14;;;;;;;1999.90;999.90;;;17.10;99.90;;;;;;5050627;28;20045;-83
2022/10/22 11:02:57;;;;;;;1999.90;999.90;;;17.20;99.90;;;;;;5051331;28;20133;-83
2022/10/22 11:05:40;;;;;;;1999.90;999.90;;;17.20;99.90;;;;;;5046218;28;20164;-83
2022/10/22 11:08:19;;;;;;;1999.90;999.90;;;17.20;99.90;;;;;;5038150;28;20558;-83
2022/10/22 11:10:50;;;;;;;1999.90;999.90;;;17.30;99.90;;;;;;5038970;28;20105;-82
2022/10/22 11:13:37;;;;;;;1999.90;999.90;;;17.30;99.90;;;;;;5036507;28;20096;-83
2022/10/22 11:16:15;;;;;;;1999.90;999.90;;;17.50;99.90;;;;;;5038092;28;20034;-83
2022/10/22 11:18:49;;;;;;;1999.90;999.90;;;17.50;99.90;;;;;;5037895;28;20531;-83
2022/10/22 11:21:43;;;;;;;1999.90;999.90;;;17.40;99.90;;;;;;5036711;28;20036;-82
2022/10/22 11:24:18;;;;;;;1999.90;999.90;;;17.60;99.90;;;;;;5036943;28;20041;-83
2022/10/22 11:27:02;;;;;;;1999.90;999.90;;;17.70;99.90;;;;;;5038628;28;20038;-83
2022/10/22 11:29:38;;;;;;;1999.90;999.90;;;17.70;99.90;;;;;;5039021;28;20044;-83
2022/10/22 11:32:09;;;;;;;1999.90;999.90;;;17.80;99.90;;;;;;5041803;28;20034;-82
2022/10/22 11:34:40;;;;;;;1999.90;999.90;;;17.80;99.90;;;;;;5038586;28;20041;-83
2022/10/22 11:37:08;;;;;;;1999.90;999.90;;;18.00;99.90;;;;;;5037559;28;20030;-83
2022/10/22 11:40:01;;;;;;;1999.90;999.90;;;18.00;99.90;;;;;;5038005;28;20042;-83
2022/10/22 11:43:02;;;;;;;1999.90;999.90;;;18.00;99.90;;;;;;5037752;28;20029;-82
2022/10/22 11:45:32;;;;;;;1999.90;999.90;;;18.00;99.90;;;;;;5038586;28;20124;-83
2022/10/22 11:48:10;;;;;;;1999.90;999.90;;;18.00;99.90;;;;;;5038792;28;20074;-82
2022/10/22 11:50:55;;;;;;;1999.90;999.90;;;18.10;99.90;;;;;;5036252;28;20256;-83
2022/10/22 11:53:32;;;;;;;1999.90;999.90;;;18.10;99.90;;;;;;5037730;28;20040;-83
2022/10/22 11:56:06;;;;;;;1999.90;999.90;;;18.10;99.90;;;;;;5038857;28;20492;-83
2022/10/22 11:58:46;;;;;;;1999.90;999.90;;;18.20;99.90;;;;;;5039023;28;20112;-83
2022/10/22 12:01:11;;;;;;;1999.90;999.90;;;18.30;99.90;;;;;;5037524;28;20137;-83
2022/10/22 12:03:43;;;;;;;1999.90;999.90;;;18.30;99.90;;;;;;5043475;28;20133;-83
2022/10/22 12:06:10;;;;;;;1999.90;999.90;;;18.40;99.90;;;;;;5037934;28;20029;-83
2022/10/22 12:09:05;;;;;;;1999.90;999.90;;;18.40;99.90;;;;;;5037925;28;20100;-82
2022/10/22 12:11:37;;;;;;;1999.90;999.90;;;18.60;99.90;;;;;;5039141;28;20545;-82
2022/10/22 12:14:26;;;;;;;1999.90;999.90;;;18.70;99.90;;;;;;5040679;28;20128;-83
2022/10/22 12:17:11;;;;;;;1999.90;999.90;;;18.90;99.90;;;;;;5039292;28;20132;-83
2022/10/22 12:19:41;;;;;;;1999.90;999.90;;;18.90;99.90;;;;;;5039368;28;20130;-82
2022/10/22 12:22:29;;;;;;;1999.90;999.90;;;19.20;99.90;;;;;;5039822;28;20073;-83
2022/10/22 12:24:59;;;;;;;1999.90;999.90;;;19.40;99.90;;;;;;5040382;28;20113;-83
2022/10/22 12:27:37;;;;;;;1999.90;999.90;;;19.60;99.90;;;;;;5040263;28;20030;-83
2022/10/22 12:30:16;;;;;;;1999.90;999.90;;;19.60;99.90;;;;;;5035694;28;20034;-83
2022/10/22 12:32:42;;;;;;;1999.90;999.90;;;19.80;99.90;;;;;;5034613;28;20034;-82
2022/10/22 12:35:20;;;;;;;1999.90;999.90;;;19.90;99.90;;;;;;5035108;28;20495;-82
2022/10/22 12:37:49;;;;;;;1999.90;999.90;;;19.90;99.90;;;;;;5034538;28;20077;-83
2022/10/22 12:40:24;;;;;;;1999.90;999.90;;;20.10;99.90;;;;;;5035337;28;20515;-82
2022/10/22 12:42:58;;;;;;;1999.90;999.90;;;20.10;99.90;;;;;;5037742;28;20106;-83
2022/10/22 12:45:29;;;;;;;1999.90;999.90;;;20.30;99.90;;;;;;5038273;28;20045;-83
2022/10/22 12:48:00;;;;;;;1999.90;999.90;;;20.40;99.90;;;;;;5036446;28;20049;-83
2022/10/22 12:50:40;;;;;;;1999.90;999.90;;;20.30;99.90;;;;;;5034660;28;20096;-84
2022/10/22 12:53:13;;;;;;;1999.90;999.90;;;20.50;99.90;;;;;;5033624;28;20084;-83
2022/10/22 12:55:40;;;;;;;1999.90;999.90;;;20.60;99.90;;;;;;5033620;28;20356;-84
2022/10/22 12:58:06;;;;;;;1999.90;999.90;;;20.60;99.90;;;;;;5035491;28;20120;-83
2022/10/22 13:00:33;;;;;;;1999.90;999.90;;;20.80;99.90;;;;;;5034000;28;20030;-84
2022/10/22 13:03:04;;;;;;;1999.90;999.90;;;20.80;99.90;;;;;;5034448;28;20557;-83
2022/10/22 13:05:37;;;;;;;1999.90;999.90;;;20.90;99.90;;;;;;5036096;28;20049;-83
2022/10/22 13:08:07;;;;;;;1999.90;999.90;;;20.80;99.90;;;;;;5034063;28;20042;-83
2022/10/22 13:10:35;;;;;;;1999.90;999.90;;;20.90;99.90;;;;;;5033767;28;20036;-83
2022/10/22 13:13:02;;;;;;;1999.90;999.90;;;20.80;99.90;;;;;;5034925;28;20044;-84
2022/10/22 13:15:32;;;;;;;1999.90;999.90;;;20.80;99.90;;;;;;5033437;28;20129;-83
2022/10/22 13:18:20;;;;;;;1999.90;999.90;;;20.80;99.90;;;;;;5034072;28;20030;-83
2022/10/22 13:21:05;;;;;;;1999.90;999.90;;;20.70;99.90;;;;;;5035749;28;20439;-84
2022/10/22 13:23:32;;;;;;;1999.90;999.90;;;20.70;99.90;;;;;;5050387;28;20061;-84
2022/10/22 13:26:10;;;;;;;1999.90;999.90;;;20.70;99.90;;;;;;5033416;28;20521;-83
2022/10/22 13:28:35;;;;;;;1999.90;999.90;;;20.50;99.90;;;;;;5033916;28;20565;-84
2022/10/22 13:31:14;;;;;;;1999.90;999.90;;;20.10;99.90;;;;;;5033793;28;20129;-83
2022/10/22 13:33:42;;;;;;;1999.90;999.90;;;20.20;99.90;;;;;;5033755;28;20471;-84
2022/10/22 13:36:12;;;;;;;1999.90;999.90;;;20.10;99.90;;;;;;5035389;28;21157;-84
2022/10/22 13:38:38;;;;;;;1999.90;999.90;;;20.20;99.90;;;;;;5033828;28;20071;-84
2022/10/22 13:41:04;;;;;;;1999.90;999.90;;;20.60;99.90;;;;;;5035886;28;20065;-83
2022/10/22 13:43:29;;;;;;;1999.90;999.90;;;20.80;99.90;;;;;;5035423;28;20069;-83
2022/10/22 13:45:57;;;;;;;1999.90;999.90;;;20.90;99.90;;;;;;5033816;28;20043;-84
2022/10/22 13:48:24;;;;;;;1999.90;999.90;;;21.00;99.90;;;;;;5034091;28;20128;-84
2022/10/22 13:50:51;;;;;;;1999.90;999.90;;;21.00;99.90;;;;;;5034588;28;20122;-84
2022/10/22 13:53:22;;;;;;;1999.90;999.90;;;21.00;99.90;;;;;;5038733;28;20038;-84
2022/10/22 13:55:49;;;;;;;1999.90;999.90;;;21.00;99.90;;;;;;5039313;28;20045;-84
2022/10/22 13:58:17;;;;;;;1999.90;999.90;;;21.20;99.90;;;;;;5038465;28;20041;-84
2022/10/22 14:00:45;;;;;;;1999.90;999.90;;;21.00;99.90;;;;;;5038005;28;20125;-84
2022/10/22 14:03:14;;;;;;;1999.90;999.90;;;21.00;99.90;;;;;;5038397;28;20443;-84
2022/10/22 14:05:40;;;;;;;1999.90;999.90;;;20.90;99.90;;;;;;5038174;28;20108;-84
2022/10/22 14:08:14;;;;;;;1999.90;999.90;;;20.80;99.90;;;;;;5038032;28;20111;-84
2022/10/22 14:10:40;;;;;;;1999.90;999.90;;;20.70;99.90;;;;;;5036552;28;20034;-85
2022/10/22 14:13:08;;;;;;;1999.90;999.90;;;20.80;99.90;;;;;;5036219;28;20040;-84
2022/10/22 14:15:34;;;;;;;1999.90;999.90;;;20.80;99.90;;;;;;5037121;28;20073;-84
2022/10/22 14:18:00;;;;;;;1999.90;999.90;;;21.00;99.90;;;;;;5038201;28;20116;-84
2022/10/22 14:20:29;;;;;;;1999.90;999.90;;;20.90;99.90;;;;;;5038297;28;20030;-83
2022/10/22 14:22:55;;;;;;;1999.90;999.90;;;20.70;99.90;;;;;;5036810;28;20420;-84
2022/10/22 14:25:23;;;;;;;1999.90;999.90;;;20.70;99.90;;;;;;5036221;28;20034;-84
2022/10/22 14:27:52;;;;;;;1999.90;999.90;;;20.60;99.90;;;;;;5036598;28;20033;-83
2022/10/22 14:30:20;;;;;;;1999.90;999.90;;;20.40;99.90;;;;;;5053589;28;20502;-84
2022/10/22 14:32:50;;;;;;;1999.90;999.90;;;20.30;99.90;;;;;;5038013;28;20069;-84
2022/10/22 14:35:19;;;;;;;1999.90;999.90;;;20.30;99.90;;;;;;5037548;28;20022;-84
2022/10/22 14:37:45;;;;;;;1999.90;999.90;;;20.30;99.90;;;;;;5038266;28;20085;-84
2022/10/22 14:40:16;;;;;;;1999.90;999.90;;;20.30;99.90;;;;;;5036459;28;20089;-84
2022/10/22 14:42:45;;;;;;;1999.90;999.90;;;20.50;99.90;;;;;;5037917;28;20042;-84
2022/10/22 14:45:21;;;;;;;1999.90;999.90;;;20.70;99.90;;;;;;5036144;28;20034;-84
2022/10/22 14:47:48;;;;;;;1999.90;999.90;;;20.90;99.90;;;;;;5036301;28;20518;-84
2022/10/22 14:50:14;;;;;;;1999.90;999.90;;;21.10;99.90;;;;;;5036921;28;20141;-83
2022/10/22 14:52:42;;;;;;;1999.90;999.90;;;21.30;99.90;;;;;;5036811;28;20161;-84
2022/10/22 14:55:09;;;;;;;1999.90;999.90;;;21.20;99.90;;;;;;5036411;28;20034;-85
2022/10/22 14:57:34;;;;;;;1999.90;999.90;;;21.20;99.90;;;;;;5038056;28;20034;-84
2022/10/22 15:00:00;;;;;;;1999.90;999.90;;;21.20;99.90;;;;;;5053268;28;20041;-84
2022/10/22 15:02:28;;;;;;;1999.90;999.90;;;21.20;99.90;;;;;;5053375;28;20045;-84
2022/10/22 15:04:54;;;;;;;1999.90;999.90;;;21.30;99.90;;;;;;5038431;28;20474;-84
2022/10/22 15:07:20;;;;;;;1999.90;999.90;;;21.40;99.90;;;;;;5041466;28;20037;-84
2022/10/22 15:09:46;;;;;;;1999.90;999.90;;;21.40;99.90;;;;;;5046079;28;20041;-84
2022/10/22 15:12:11;;;;;;;1999.90;999.90;;;21.40;99.90;;;;;;5050623;28;20077;-84
2022/10/22 15:14:37;;;;;;;1999.90;999.90;;;21.40;99.90;;;;;;5050071;28;20045;-84
2022/10/22 15:17:02;;;;;;;1999.90;999.90;;;21.30;99.90;;;;;;5050406;28;20124;-84
2022/10/22 15:19:28;;;;;;;1999.90;999.90;;;21.20;99.90;;;;;;5041368;28;20049;-84
2022/10/22 15:21:54;;;;;;;1999.90;999.90;;;21.00;99.90;;;;;;5040351;28;20045;-83
2022/10/22 15:24:19;;;;;;;1999.90;999.90;;;20.80;99.90;;;;;;5040156;28;20041;-83
2022/10/22 15:26:45;;;;;;;1999.90;999.90;;;20.60;99.90;;;;;;5041562;28;20038;-83
2022/10/22 15:29:11;;;;;;;1999.90;999.90;;;20.50;99.90;;;;;;5055449;28;20065;-84
2022/10/22 15:31:59;;;;;;;1999.90;999.90;;;20.30;99.90;;;;;;5036424;28;20037;-83
2022/10/22 15:34:31;;;;;;;1999.90;999.90;;;20.20;99.90;;;;;;5034651;28;20034;-84
2022/10/22 15:36:59;;;;;;;1999.90;999.90;;;20.00;99.90;;;;;;5034602;28;20040;-84
2022/10/22 15:39:25;;;;;;;1999.90;999.90;;;20.00;99.90;;;;;;5034616;28;20074;-84
2022/10/22 15:41:51;;;;;;;1999.90;999.90;;;19.90;99.90;;;;;;5035934;28;20115;-84
2022/10/22 15:44:23;;;;;;;1999.90;999.90;;;19.70;99.90;;;;;;5036304;28;20475;-84
2022/10/22 15:46:53;;;;;;;1999.90;999.90;;;19.50;99.90;;;;;;5034689;28;20030;-85
2022/10/22 15:49:19;;;;;;;1999.90;999.90;;;19.30;99.90;;;;;;5036599;28;20037;-84
2022/10/22 15:51:45;;;;;;;1999.90;999.90;;;18.90;99.90;;;;;;5036459;28;20108;-84
2022/10/22 15:54:14;;;;;;;1999.90;999.90;;;18.60;99.90;;;;;;5034104;28;20034;-84
2022/10/22 15:56:40;;;;;;;1999.90;999.90;;;18.20;99.90;;;;;;5035680;28;20036;-84
2022/10/22 15:59:05;;;;;;;1999.90;999.90;;;18.00;99.90;;;;;;5036045;28;20034;-83
2022/10/22 16:01:33;;;;;;;1999.90;999.90;;;17.60;99.90;;;;;;5037061;28;20038;-83
2022/10/22 16:04:01;;;;;;;1999.90;999.90;;;17.40;99.90;;;;;;5036211;28;20037;-84
2022/10/22 16:06:33;;;;;;;1999.90;999.90;;;17.00;99.90;;;;;;5033940;28;20483;-84
2022/10/22 16:09:00;;;;;;;1999.90;999.90;;;16.80;99.90;;;;;;5035751;28;20071;-83
2022/10/22 16:11:27;;;;;;;1999.90;999.90;;;16.60;99.90;;;;;;5034736;28;20050;-84
2022/10/22 16:16:29;;;;;;;1999.90;999.90;;;16.20;99.90;;;;;;5033042;28;20062;-83
2022/10/22 16:18:55;;;;;;;1999.90;999.90;;;16.00;99.90;;;;;;5034411;28;20044;-83
2022/10/22 16:21:22;;;;;;;1999.90;999.90;;;15.80;99.90;;;;;;5034319;28;20034;-83